Weather observations for the past three days for
Le Mars Municipal Airport
Imperial (Metric)
Date Time (cdt) Wind (mph) Vis. (mi.) Weather Sky Cond. Temperature (ºF) Relative Humidity Wind Chill (°F) Heat Index (°F) Pressure Precipitation (in)
Air Dwpt 6 hour altimeter (in) sea level (mb) 1 hr 3 hr 6 hr
Max. Min.
03 16:15 W 10 G 17 10.00 Fair CLR 73.4 33.8 23% 29.77 0.0
03 15:55 N 9 G 16 10.00 Fair CLR 73.4 33.8 23% 29.78 0.0
03 15:35 NW 10 G 16 10.00 Fair CLR 73.4 33.8 23% 29.79 0.0
03 15:15 N 9 G 20 10.00 Fair CLR 73.4 33.8 23% 29.8 0.0
03 14:55 NW 14 10.00 Fair CLR 71.6 32 23% 29.81 0.0
03 14:35 NW 13 10.00 Fair CLR 71.6 33.8 25% 29.81 0.0
03 14:15 N 12 10.00 Fair CLR 71.6 32 23% 29.82 0.0
03 13:55 W 8 G 20 10.00 Fair CLR 69.8 33.8 27% 29.82 0.0
03 13:35 NW 15 G 21 10.00 Fair CLR 71.6 33.8 25% 29.83 0.0
03 13:15 NW 17 G 24 10.00 Fair CLR 71.6 33.8 25% 29.84 0.0
03 12:55 N 15 G 25 10.00 Fair CLR 69.8 33.8 27% 29.84 0.0
03 12:35 NW 14 G 25 10.00 Fair CLR 69.8 33.8 27% 29.85 0.0
03 12:15 N 17 G 24 10.00 Fair CLR 69.8 33.8 27% 29.84 0.0
03 11:55 N 16 G 30 10.00 Fair CLR 68 33.8 28% 29.84 0.0
03 11:35 N 20 10.00 Fair CLR 68 33.8 28% 29.84 0.0
03 11:15 N 17 G 26 10.00 Fair CLR 68 35.6 30% 29.84 0.0
03 10:55 N 18 G 29 10.00 Fair CLR 66.2 33.8 30% 29.84 0.0
03 10:35 N 21 10.00 Fair and Breezy CLR 68 35.6 30% 29.83 0.0
03 10:15 N 17 10.00 Fair CLR 66.2 35.6 32% 29.84 0.0
03 09:55 N 18 10.00 Fair CLR 64.4 37.4 37% 29.85 0.0
03 09:35 N 12 G 21 10.00 Fair CLR 62.6 37.4 39% 29.85 0.0
03 09:15 N 14 10.00 Fair CLR 60.8 37.4 42% 29.85 0.0
03 08:55 N 13 10.00 Fair CLR 60.8 37.4 42% 29.84 0.0
03 08:35 N 13 10.00 Fair CLR 57.2 37.4 48% 29.84 0.0
03 08:15 NW 9 G 17 10.00 Fair CLR 57.2 37.4 48% 29.83 0.0
03 07:55 NW 10 G 16 10.00 Fair CLR 55.4 37.4 51% 29.83 0.0
03 07:35 NW 10 10.00 Fair CLR 53.6 37.4 54% 29.82 0.0
03 07:15 NW 9 10.00 Fair CLR 51.8 37.4 58% 29.81 0.0
03 06:55 NW 7 10.00 Fair CLR 51.8 37.4 58% 29.8 0.0
03 06:35 NW 7 10.00 Fair CLR 50 37.4 62% 48 29.79 0.0
03 06:15 NW 6 10.00 Fair CLR 50 35.6 58% 48 29.78 0.0
03 05:55 Calm 10.00 Fair CLR 50 35.6 58% 29.78 0.0
03 05:35 W 7 10.00 Fair CLR 50 33.8 54% 48 29.78 0.0
03 05:15 Calm 10.00 Fair CLR 46.4 33.8 62% 29.77 0.0
03 04:55 Calm 10.00 Fair CLR 48.2 33.8 58% 29.77 0.0
03 04:35 Calm 10.00 A Few Clouds FEW110 48.2 33.8 58% 29.76 0.0
03 04:15 S 6 10.00 Partly Cloudy SCT110 50 32 50% 48 29.76 0.0
03 03:55 S 7 10.00 A Few Clouds FEW110 48.2 32 54% 46 29.76 0.0
03 03:35 S 10 10.00 Fair CLR 51.8 32 47% 29.76 0.0
03 03:15 S 12 10.00 Fair CLR 53.6 32 44% 29.76 0.0
03 02:55 S 7 10.00 Fair CLR 51.8 32 47% 29.77 0.0
03 02:35 S 14 10.00 Fair CLR 51.8 32 47% 29.76 0.0
03 02:15 S 8 10.00 Fair CLR 50 32 50% 47 29.79 0.0
03 01:55 S 7 10.00 Fair CLR 53.6 30.2 41% 29.8 0.0
03 01:35 S 6 10.00 A Few Clouds FEW120 55.4 30.2 38% 29.8 0.0
03 01:15 SE 10 10.00 Mostly Cloudy FEW075 BKN110 57.2 30.2 36% 29.8 0.0
03 00:55 S 8 10.00 Overcast FEW075 BKN095 OVC110 57.2 30.2 36% 29.81 0.0
03 00:35 S 9 10.00 Overcast FEW075 BKN090 OVC110 57.2 30.2 36% 29.81 0.0
03 00:15 S 12 10.00 Partly Cloudy SCT110 57.2 30.2 36% 29.81 0.0
02 23:55 S 12 10.00 Partly Cloudy SCT100 57.2 28.4 33% 29.8 0.0
02 23:35 S 12 10.00 Mostly Cloudy BKN110 55.4 30.2 38% 29.81 0.0
02 23:15 S 12 10.00 Mostly Cloudy FEW080 BKN100 57.2 28.4 33% 29.82 0.0
02 22:55 SE 13 10.00 Overcast OVC110 57.2 30.2 36% 29.82 0.0
02 22:35 S 7 10.00 Mostly Cloudy BKN110 57.2 30.2 36% 29.84 0.0
02 22:15 S 10 10.00 Mostly Cloudy BKN110 57.2 30.2 36% 29.83 0.0
02 21:55 S 10 10.00 Mostly Cloudy BKN110 57.2 30.2 36% 29.84 0.0
02 21:35 S 10 10.00 Partly Cloudy SCT110 57.2 30.2 36% 29.84 0.0
02 21:15 S 9 10.00 Fair CLR 57.2 30.2 36% 29.84 0.0
02 20:55 S 8 10.00 Fair CLR 57.2 30.2 36% 29.85 0.0
02 20:35 S 9 4.00 Fair with Haze CLR 59 30.2 34% 29.85 0.0
02 20:15 S 9 7.00 Fair CLR 60.8 28.4 29% 29.86 0.0
02 19:55 S 10 10.00 Fair CLR 64.4 28.4 26% 29.86 0.0
02 19:35 S 10 G 16 10.00 Fair CLR 66.2 26.6 22% 29.87 0.0
02 19:15 SW 12 G 20 10.00 Fair CLR 68 24.8 20% 29.88 0.0
02 18:55 SW 14 10.00 A Few Clouds FEW120 68 26.6 21% 29.89 0.0
02 18:35 S 12 10.00 Partly Cloudy SCT120 68 26.6 21% 29.9 0.0
02 18:15 SW 10 10.00 Partly Cloudy SCT120 68 26.6 21% 29.92 0.0
02 17:55 SW 10 G 18 9.00 Fair CLR 68 24.8 20% 29.92 0.0
02 17:35 SW 15 10.00 Fair CLR 69.8 26.6 20% 29.92 0.0
02 17:15 SW 10 G 21 10.00 Fair CLR 68 24.8 20% 29.92 0.0
02 16:55 Vrbl 5 G 16 10.00 Fair CLR 68 26.6 21% 29.94 0.0
02 16:35 SW 10 G 16 10.00 Fair CLR 68 26.6 21% 29.96 0.0
02 16:15 SW 12 10.00 Fair CLR 68 26.6 21% 29.97 0.0
02 15:55 SW 9 10.00 Fair CLR 68 28.4 23% 29.97 0.0
02 15:35 S 12 10.00 Fair CLR 66.2 28.4 24% 29.98 0.0
02 15:15 S 9 G 15 10.00 Fair CLR 66.2 26.6 22% 29.99 0.0
02 14:55 SW 10 10.00 Fair CLR 66.2 28.4 24% 30 0.0
02 14:35 W 8 10.00 Fair CLR 66.2 28.4 24% 30.01 0.0
02 14:15 SW 8 G 17 10.00 Fair CLR 64.4 28.4 26% 30.03 0.0
02 13:55 W 10 10.00 Fair CLR 64.4 28.4 26% 30.03 0.0
02 13:35 SW 13 10.00 Fair CLR 64.4 26.6 24% 30.05 0.0
02 13:15 SW 9 G 17 10.00 Fair CLR 64.4 26.6 24% 30.05 0.0
02 12:55 SW 8 G 16 10.00 Fair CLR 62.6 26.6 25% 30.06 0.0
02 12:35 W 12 10.00 Fair CLR 62.6 28.4 27% 30.07 0.0
02 12:15 SW 8 G 14 10.00 Fair CLR 60.8 28.4 29% 30.08 0.0
02 11:55 Vrbl 7 G 17 10.00 Fair CLR 59 28.4 31% 30.09 0.0
02 11:35 W 9 10.00 Fair CLR 59 26.6 29% 30.1 0.0
02 11:15 W 9 10.00 Fair CLR 57.2 26.6 31% 30.1 0.0
02 10:55 SW 9 10.00 Fair CLR 57.2 26.6 31% 30.11 0.0
02 10:35 W 8 10.00 Fair CLR 55.4 26.6 33% 30.11 0.0
02 10:15 SW 10 10.00 Fair CLR 55.4 26.6 33% 30.11 0.0
02 09:55 W 7 G 13 10.00 Fair CLR 53.6 26.6 35% 30.12 0.0
02 09:35 S 7 10.00 Fair CLR 50 33.8 54% 48 30.12 0.0
02 09:15 Vrbl 6 10.00 Fair CLR 48.2 33.8 58% 46 30.13 0.0
02 08:55 S 5 10.00 Fair CLR 44.6 35.6 71% 43 30.13 0.0
02 08:35 S 5 10.00 Fair CLR 41 35.6 81% 38 30.14 0.0
02 08:15 S 3 10.00 Fair CLR 37.4 35.6 93% 30.14 0.0
02 07:55 Calm 10.00 Fair CLR 35.6 35.6 100% 30.14 0.0
02 07:35 Calm 10.00 Fair CLR 33.8 33.8 100% 30.14 0.0
02 07:15 Calm 10.00 Fair CLR 30.2 30.2 100% 30.14 0.0
02 06:55 Calm 6.00 Fog/Mist CLR 30.2 30.2 100% 30.14 0.0
02 06:35 Calm 8.00 Fair CLR 30.2 30.2 100% 30.14 0.0
02 06:15 Calm 10.00 Fair CLR 28.4 28.4 100% 30.13 0.0
02 05:55 Calm 10.00 Fair CLR 28.4 28.4 100% 30.13 0.0
02 05:35 Calm 9.00 Fair CLR 30.2 30.2 100% 30.14 0.0
02 05:15 Calm 9.00 Fair CLR 30.2 30.2 100% 30.14 0.0
02 04:55 Calm 8.00 Fair CLR 30.2 30.2 100% 30.13 0.0
02 04:35 Calm 10.00 Fair CLR 30.2 30.2 100% 30.13 0.0
02 04:15 Calm 10.00 Fair CLR 30.2 30.2 100% 30.13 0.0
02 03:55 Calm 10.00 Fair CLR 30.2 30.2 100% 30.13 0.0
02 03:15 Calm 10.00 Fair CLR 32 32 100% 30.13 0.0
02 02:55 Calm 10.00 Fair CLR 32 32 100% 30.13 0.0
02 02:35 Calm 10.00 Fair CLR 32 32 100% 30.13 0.0
02 02:15 SW 3 10.00 Fair CLR 32 32 100% 30.13 0.0
02 01:55 Calm 10.00 Fair CLR 32 32 100% 30.14 0.0
02 01:35 Calm 10.00 Fair CLR 33.8 33.8 100% 30.14 0.0
02 01:15 Calm 10.00 Fair CLR 33.8 33.8 100% 30.13 0.0
02 00:55 Calm 10.00 Fair CLR 33.8 33.8 100% 30.14 0.0
02 00:35 Calm 10.00 Fair CLR 35.6 35.6 100% 30.14 0.0
02 00:15 Calm 10.00 Fair CLR 35.6 32 87% 30.13 0.0
01 23:55 Calm 10.00 Fair CLR 35.6 32 87% 30.13 0.0
01 23:35 Calm 10.00 Fair CLR 37.4 30.2 75% 30.13 0.0
01 23:15 Calm 10.00 Fair CLR 37.4 32 81% 30.12 0.0
01 22:55 Calm 10.00 Fair CLR 37.4 32 81% 30.12 0.0
01 22:35 Calm 10.00 Fair CLR 39.2 28.4 65% 30.12 0.0
01 22:15 Calm 10.00 Fair CLR 41 28.4 61% 30.12 0.0
01 21:55 N 3 10.00 Fair CLR 44.6 26.6 49% 30.12 0.0
01 21:35 Calm 10.00 Fair CLR 44.6 28.4 53% 30.11 0.0
01 21:15 N 5 10.00 Fair CLR 46.4 26.6 46% 45 30.1 0.0
01 20:55 N 6 10.00 Fair CLR 46.4 24.8 43% 44 30.09 0.0
01 20:15 N 7 10.00 Fair CLR 51.8 23 32% 30.08 0.0
01 19:55 N 8 10.00 Fair CLR 51.8 23 32% 30.08 0.0
01 19:35 N 8 10.00 Fair CLR 53.6 21.2 28% 30.08 0.0
01 19:15 N 8 G 16 10.00 A Few Clouds FEW075 53.6 21.2 28% 30.08 0.0
01 18:55 NW 12 10.00 Fair CLR 53.6 21.2 28% 30.07 0.0
01 18:35 NW 10 10.00 A Few Clouds FEW075 55.4 21.2 26% 30.07 0.0
01 18:15 N 9 10.00 A Few Clouds FEW075 53.6 21.2 28% 30.07 0.0
01 17:55 N 13 G 21 10.00 Partly Cloudy SCT075 55.4 21.2 26% 30.07 0.0
01 17:35 N 10 G 20 10.00 Partly Cloudy SCT070 55.4 21.2 26% 30.07 0.0
01 17:15 NW 12 10.00 Fair CLR 55.4 23 28% 30.07 0.0
01 16:55 N 8 G 18 10.00 Partly Cloudy SCT070 55.4 23 28% 30.07 0.0
01 16:35 N 12 10.00 Partly Cloudy SCT070 55.4 23 28% 30.07 0.0
01 16:15 NW 9 G 23 10.00 Mostly Cloudy BKN065 53.6 23 30% 30.08 0.0
01 15:55 N 10 G 18 10.00 A Few Clouds FEW065 53.6 23 30% 30.08 0.0
01 15:35 N 14 G 23 10.00 Fair CLR 53.6 23 30% 30.09 0.0
01 15:15 N 14 10.00 Fair CLR 51.8 23 32% 30.09 0.0
01 14:55 N 12 G 17 10.00 A Few Clouds FEW060 53.6 23 30% 30.09 0.0
01 14:35 N 12 G 17 10.00 A Few Clouds FEW060 51.8 23 32% 30.1 0.0
01 14:15 NW 13 G 21 10.00 A Few Clouds FEW060 51.8 23 32% 30.1 0.0
01 13:55 N 13 G 21 10.00 Partly Cloudy SCT060 50 23 35% 46 30.1 0.0
01 13:35 N 8 G 24 10.00 A Few Clouds FEW060 50 23 35% 47 30.1 0.0
01 13:15 N 14 G 21 10.00 Mostly Cloudy BKN060 51.8 23 32% 30.1 0.0
01 12:55 NW 15 G 23 10.00 Mostly Cloudy BKN060 50 23 35% 45 30.11 0.0
01 12:35 N 9 G 17 10.00 Mostly Cloudy BKN060 51.8 23 32% 30.11 0.0
01 12:15 NW 17 G 23 10.00 Mostly Cloudy BKN060 50 23 35% 45 30.11 0.0
01 11:55 N 13 G 20 10.00 Partly Cloudy SCT055 SCT065 50 23 35% 46 30.1 0.0
01 11:35 N 9 G 18 10.00 Mostly Cloudy SCT050 BKN060 48.2 24.8 40% 45 30.1 0.0
01 11:15 N 14 G 20 10.00 Partly Cloudy SCT048 SCT055 48.2 26.6 43% 43 30.1 0.0
01 10:55 NW 15 G 22 10.00 Partly Cloudy SCT050 SCT055 48.2 28.4 46% 43 30.09 0.0
01 10:35 N 16 G 24 10.00 Mostly Cloudy BKN055 48.2 28.4 46% 43 30.1 0.0
01 10:15 N 15 G 22 10.00 Mostly Cloudy SCT050 BKN055 46.4 28.4 50% 41 30.09 0.0
01 09:55 N 10 10.00 Overcast BKN050 OVC055 46.4 30.2 53% 42 30.09 0.0
01 09:35 N 9 10.00 Overcast FEW038 BKN047 OVC055 44.6 33.8 66% 40 30.1 0.0
01 09:15 N 12 10.00 Overcast FEW037 OVC055 42.8 35.6 76% 37 30.09 0.0
01 08:55 N 9 10.00 Partly Cloudy SCT055 42.8 37.4 81% 38 30.09 0.0
01 08:35 N 12 10.00 Fair CLR 41 41 100% 35 30.09 0.0
01 08:15 N 9 G 15 10.00 Partly Cloudy SCT035 41 41 100% 36 30.08 0.0
01 07:55 N 10 10.00 A Few Clouds FEW037 39.2 39.2 100% 33 30.08 0.0
01 07:35 NE 7 10.00 Fair CLR 37.4 37.4 100% 33 30.07 0.0
01 07:15 Calm 10.00 Fair CLR 37.4 37.4 100% 30.07 0.0
01 06:55 Calm 10.00 Fair CLR 35.6 35.6 100% 30.06 0.0
01 06:35 Calm 10.00 Fair CLR 35.6 35.6 100% 30.05 0.0
01 06:15 N 3 10.00 Fair CLR 35.6 35.6 100% 30.04 0.0
01 05:55 N 6 10.00 Fair CLR 35.6 35.6 100% 31 30.04 0.0
01 05:35 N 5 10.00 Fair CLR 35.6 35.6 100% 32 30.04 0.0
01 05:15 Calm 10.00 Fair CLR 35.6 35.6 100% 30.04 0.0
01 04:55 Calm 10.00 Fair CLR 35.6 35.6 100% 30.04 0.0
01 04:35 Calm 10.00 Fair CLR 35.6 35.6 100% 30.03 0.0
01 04:15 Calm 10.00 Fair CLR 37.4 37.4 100% 30.03 0.0
01 03:55 Calm 10.00 Partly Cloudy SCT065 SCT075 37.4 37.4 100% 30.02 0.0
01 03:35 Calm 10.00 Overcast BKN065 OVC075 39.2 39.2 100% 30.03 0.0
01 03:15 NE 7 10.00 Overcast OVC070 39.2 39.2 100% 35 30.04 0.0
01 02:55 Calm 10.00 Overcast BKN075 OVC085 35.6 35.6 100% 30.02 0.0
01 02:35 Calm 9.00 Mostly Cloudy BKN080 35.6 35.6 100% 30.03 0.0
01 02:15 Calm 10.00 Mostly Cloudy BKN080 37.4 37.4 100% 30.03 0.0
01 01:55 Calm 10.00 Partly Cloudy SCT085 37.4 37.4 100% 30.03 0.0
01 01:35 S 3 10.00 Fair CLR 37.4 37.4 100% 30.04 0.0
01 01:15 Calm 10.00 Fair CLR 39.2 39.2 100% 30.04 0.0
01 00:55 Calm 10.00 Fair CLR 39.2 39.2 100% 30.04 0.0
01 00:35 S 3 10.00 Fair CLR 39.2 39.2 100% 30.04 0.0
01 00:15 S 5 10.00 Fair CLR 41 41 100% 38 30.04 0.0
30 23:35 Calm 10.00 A Few Clouds FEW090 42.8 42.8 100% 30.04 0.0
30 23:15 Calm 10.00 Mostly Cloudy BKN085 44.6 42.8 93% 30.04 0.0
30 22:55 Calm 10.00 Overcast FEW070 SCT075 OVC090 44.6 42.8 93% 30.05 0.0
30 22:35 Calm 10.00 Overcast FEW049 BKN075 OVC090 44.6 39.2 81% 30.05 0.0
30 22:15 NW 3 10.00 Overcast FEW036 SCT048 OVC075 46.4 37.4 71% 30.06 0.0
30 21:55 NW 7 10.00 Mostly Cloudy FEW028 SCT039 BKN047 46.4 35.6 66% 43 30.06 0.0
30 21:35 NW 6 10.00 Overcast FEW046 BKN055 OVC070 48.2 32 54% 46 30.06 0.0
30 21:15 N 7 10.00 Overcast FEW055 OVC070 48.2 30.2 50% 46 30.04 0.0
30 20:55 Calm 10.00 Overcast BKN070 OVC090 48.2 30.2 50% 30.04 0.0
30 20:35 Calm 10.00 Mostly Cloudy BKN080 BKN095 48.2 28.4 46% 30.04 0.0
30 20:15 W 3 10.00 Mostly Cloudy BKN085 50 26.6 40% 30.04 0.0
30 19:55 W 6 10.00 A Few Clouds FEW090 51.8 26.6 38% 30.04 0.0
30 19:35 W 7 G 15 10.00 Fair CLR 53.6 24.8 33% 30.04 0.0
30 19:15 W 9 10.00 Fair CLR 53.6 24.8 33% 30.04 0.0
30 18:55 NW 10 10.00 Fair CLR 53.6 24.8 33% 30.04 0.0
30 18:35 W 9 G 18 10.00 Fair CLR 53.6 24.8 33% 30.05 0.0
30 18:15 Vrbl 6 10.00 Fair CLR 53.6 24.8 33% 30.05 0.0
30 17:55 NW 7 G 13 10.00 A Few Clouds FEW080 FEW095 53.6 24.8 33% 30.05 0.0
30 17:35 W 12 10.00 Fair CLR 53.6 23 30% 30.05 0.0
30 17:15 NW 8 G 15 10.00 Partly Cloudy FEW065 SCT095 53.6 24.8 33% 30.06 0.0
30 16:55 NW 9 G 16 10.00 Partly Cloudy FEW065 FEW075 SCT090 53.6 24.8 33% 30.06 0.0
30 16:35 NW 8 G 17 10.00 Mostly Cloudy BKN085 53.6 23 30% 30.07 0.0
Date Time (cdt) Wind (mph) Vis. (mi.) Weather Sky Cond. Air Dwpt Max. Min. Relative Humidity Wind Chill (°F) Heat Index (°F) altimeter (in) sea level (mb) 1 hr 3 hr 6 hr
6 hour
Temperature (ºF) Pressure Precipitation (in)